Time;durP1;ratioP1;P1;durP2;ratioP2;P2;SDS_P1;SDS_P2;PMS_P1;PMS_P2;Temp;Humidity;BMP_temperature;BMP_pressure;BME280_temperature;BME280_humidity;BME280_pressure;Samples;Min_cycle;Max_cycle;Signal;HPM_P1;HPM_P2
2022/08/10 00:02:51;;;;;;;3.17;1.92;;;;;;;19.13;64.05;102464.94;5264487;28;20072;-81
2022/08/10 00:05:23;;;;;;;5.30;2.40;;;;;;;19.15;63.53;102466.69;5264840;28;20029;-81
2022/08/10 00:07:55;;;;;;;2.95;2.05;;;;;;;19.19;63.86;102470.97;5264613;28;20033;-82
2022/08/10 00:10:26;;;;;;;4.10;2.10;;;;;;;18.95;63.60;102468.00;5265348;28;20564;-82
2022/08/10 00:12:58;;;;;;;3.83;2.40;;;;;;;19.10;64.09;102466.78;5266608;28;20478;-82
2022/08/10 00:15:29;;;;;;;5.53;2.27;;;;;;;19.05;63.96;102466.03;5287750;28;20049;-81
2022/08/10 00:18:01;;;;;;;9.37;2.50;;;;;;;18.97;64.22;102460.03;5271413;28;20063;-82
2022/08/10 00:20:32;;;;;;;5.40;2.37;;;;;;;18.84;64.44;102454.13;5264872;28;20017;-81
2022/08/10 00:23:04;;;;;;;6.40;2.33;;;;;;;18.78;64.79;102461.22;5262952;28;20070;-82
2022/08/10 00:25:35;;;;;;;3.40;2.23;;;;;;;18.76;65.03;102459.53;5264070;28;20367;-81
2022/08/10 00:28:07;;;;;;;5.38;2.13;;;;;;;18.70;65.13;102451.72;5262617;28;20469;-82
2022/08/10 00:30:38;;;;;;;3.00;1.90;;;;;;;18.88;65.74;102456.66;5264248;28;20036;-81
2022/08/10 00:33:10;;;;;;;3.17;2.10;;;;;;;18.82;65.68;102446.22;5263453;28;20028;-80
2022/08/10 00:35:42;;;;;;;3.13;2.00;;;;;;;18.69;65.18;102450.88;5263671;28;20281;-80
2022/08/10 00:38:13;;;;;;;3.60;2.10;;;;;;;18.58;65.38;102445.78;5263471;28;20037;-81
2022/08/10 00:40:45;;;;;;;4.93;2.20;;;;;;;18.62;65.59;102446.59;5263904;28;20119;-81
2022/08/10 00:43:16;;;;;;;5.63;1.93;;;;;;;18.66;65.83;102450.03;5263347;28;20061;-80
2022/08/10 00:45:47;;;;;;;5.40;2.10;;;;;;;18.54;65.88;102448.53;5263577;28;20037;-81
2022/08/10 00:48:19;;;;;;;7.40;2.27;;;;;;;18.51;65.85;102448.56;5261882;28;20087;-81
2022/08/10 00:50:50;;;;;;;3.67;2.20;;;;;;;18.54;65.93;102444.09;5263124;28;20116;-81
2022/08/10 00:53:22;;;;;;;3.80;1.97;;;;;;;18.50;66.51;102436.25;5263343;28;20130;-80
2022/08/10 00:55:54;;;;;;;2.87;1.83;;;;;;;18.45;66.51;102441.66;5266840;28;20036;-81
2022/08/10 00:58:25;;;;;;;3.83;2.22;;;;;;;18.28;67.36;102433.19;5264827;28;20032;-80
2022/08/10 01:00:57;;;;;;;3.30;2.00;;;;;;;18.28;66.70;102439.34;5265004;28;20067;-82
2022/08/10 01:03:28;;;;;;;6.23;2.27;;;;;;;18.17;67.28;102434.25;5264771;28;20509;-82
2022/08/10 01:06:22;;;;;;;3.10;2.20;;;;;;;18.13;67.34;102440.50;5263568;28;20397;-81
2022/08/10 01:09:05;;;;;;;4.30;2.20;;;;;;;18.04;68.05;102438.88;5263004;28;20029;-81
2022/08/10 01:11:54;;;;;;;2.53;1.88;;;;;;;18.13;67.54;102436.97;5262721;28;20032;-81
2022/08/10 01:14:49;;;;;;;3.30;2.05;;;;;;;18.19;67.38;102439.50;5262934;28;20245;-82
2022/08/10 01:17:33;;;;;;;3.90;2.03;;;;;;;18.03;67.92;102433.63;5261689;28;20466;-82
2022/08/10 01:20:32;;;;;;;8.48;2.58;;;;;;;18.11;68.10;102429.09;5261248;28;20033;-82
2022/08/10 01:23:30;;;;;;;4.32;2.65;;;;;;;17.97;68.19;102428.47;5262664;28;20052;-82
2022/08/10 01:26:15;;;;;;;3.38;2.53;;;;;;;17.89;68.55;102427.72;5257264;28;20131;-81
2022/08/10 01:29:06;;;;;;;3.88;2.67;;;;;;;17.97;67.81;102425.84;5262646;28;20024;-82
2022/08/10 01:31:43;;;;;;;3.97;2.53;;;;;;;18.02;68.83;102423.97;5262602;28;20049;-82
2022/08/10 01:34:28;;;;;;;6.25;2.60;;;;;;;17.91;68.55;102431.22;5262625;28;20064;-82
2022/08/10 01:37:05;;;;;;;2.72;2.35;;;;;;;17.78;68.92;102426.09;5262419;28;20025;-82
2022/08/10 01:39:41;;;;;;;3.13;2.45;;;;;;;17.84;68.79;102433.06;5260869;28;20044;-82
2022/08/10 01:42:15;;;;;;;5.68;2.30;;;;;;;17.70;69.09;102425.38;5261646;28;20127;-82
2022/08/10 01:44:58;;;;;;;3.70;2.30;;;;;;;17.72;69.45;102428.84;5264413;28;20116;-82
2022/08/10 01:50:36;;;;;;;6.07;2.50;;;;;;;17.60;69.75;102429.06;5274636;28;20344;-82
2022/08/10 01:53:14;;;;;;;3.30;2.42;;;;;;;17.47;70.33;102429.25;5269986;28;20080;-82
2022/08/10 01:55:49;;;;;;;11.48;2.75;;;;;;;17.61;70.26;102430.78;5264527;28;20029;-82
2022/08/10 01:58:24;;;;;;;3.60;2.65;;;;;;;17.42;70.43;102431.09;5263436;28;20478;-82
2022/08/10 02:00:57;;;;;;;4.68;2.88;;;;;;;17.33;70.82;102428.56;5263351;28;20025;-82
2022/08/10 02:03:30;;;;;;;6.25;2.85;;;;;;;17.26;71.44;102440.13;5262288;28;20024;-82
2022/08/10 02:06:05;;;;;;;4.00;2.65;;;;;;;17.24;70.88;102431.34;5262950;28;20530;-81
2022/08/10 02:08:38;;;;;;;4.95;2.95;;;;;;;17.19;71.42;102430.53;5261149;28;20021;-82
2022/08/10 02:11:10;;;;;;;;;;;;;;;17.47;68.50;102425.75;5262810;28;20116;-82
2022/08/10 02:13:43;;;;;;;3.90;2.83;;;;;;;17.11;71.54;102435.91;5262806;28;19920;-82
2022/08/10 02:16:16;;;;;;;8.05;2.75;;;;;;;17.11;71.92;102436.81;5262636;28;20056;-82
2022/08/10 02:18:51;;;;;;;9.73;3.35;;;;;;;17.06;72.45;102440.38;5262550;28;20159;-82
2022/08/10 02:21:23;;;;;;;4.82;3.17;;;;;;;17.08;72.39;102433.31;5262479;28;20052;-82
2022/08/10 02:23:58;;;;;;;7.47;2.72;;;;;;;17.08;72.88;102428.03;5262297;28;20477;-82
2022/08/10 02:26:30;;;;;;;3.83;2.92;;;;;;;17.01;72.90;102421.13;5262418;28;20036;-82
2022/08/10 02:29:01;;;;;;;8.53;3.27;;;;;;;17.03;72.98;102424.59;5261471;28;20033;-82
2022/08/10 02:31:34;;;;;;;6.37;3.00;;;;;;;16.92;72.96;102424.75;5264276;28;20033;-82
2022/08/10 02:34:08;;;;;;;4.90;3.08;;;;;;;16.82;73.46;102428.38;5280443;28;20017;-82
2022/08/10 02:36:48;;;;;;;6.55;2.90;;;;;;;16.87;73.59;102430.09;5277765;28;20029;-81
2022/08/10 02:39:22;;;;;;;4.50;3.33;;;;;;;16.85;73.84;102426.59;5269821;28;20108;-81
2022/08/10 02:42:11;;;;;;;4.60;3.03;;;;;;;16.81;73.66;102426.59;5262941;28;20462;-81
2022/08/10 02:45:00;;;;;;;4.45;2.88;;;;;;;16.73;73.82;102430.22;5262719;28;20445;-81
2022/08/10 02:47:38;;;;;;;4.47;3.20;;;;;;;16.62;74.72;102426.00;5261891;28;20074;-82
2022/08/10 02:50:23;;;;;;;4.75;2.85;;;;;;;16.61;74.90;102424.22;5262224;28;20108;-82
2022/08/10 02:53:49;;;;;;;5.60;3.13;;;;;;;16.69;74.40;102423.25;5261178;28;20434;-81
2022/08/10 02:56:38;;;;;;;4.88;3.35;;;;;;;16.68;74.63;102416.25;5177529;28;20026;-80
2022/08/10 02:59:22;;;;;;;10.25;3.70;;;;;;;16.49;75.15;102412.09;5258401;28;20128;-81
2022/08/10 03:01:58;;;;;;;6.82;3.30;;;;;;;16.51;75.22;102412.94;5262004;28;20087;-81
2022/08/10 03:04:36;;;;;;;7.28;3.17;;;;;;;16.44;75.42;102406.88;5261850;28;20370;-81
2022/08/10 03:07:12;;;;;;;4.63;3.22;;;;;;;16.33;76.03;102407.00;5260521;28;20109;-82
2022/08/10 03:09:46;;;;;;;4.57;3.40;;;;;;;16.32;75.93;102407.00;5261680;28;20053;-82
2022/08/10 03:12:19;;;;;;;5.28;3.25;;;;;;;16.32;76.14;102402.59;5261765;28;20029;-80
2022/08/10 03:14:50;;;;;;;3.63;2.85;;;;;;;16.20;76.62;102398.34;5264360;28;20389;-81
2022/08/10 03:17:22;;;;;;;4.77;3.30;;;;;;;16.22;76.60;102404.47;5270333;28;20057;-81
2022/08/10 03:19:56;;;;;;;8.05;3.03;;;;;;;16.15;76.63;102396.69;5286032;28;20053;-81
2022/08/10 03:22:28;;;;;;;6.72;3.50;;;;;;;16.10;77.19;102403.72;5275320;28;20033;-81
2022/08/10 03:25:00;;;;;;;;;;;;;;;16.43;74.22;102401.63;5269260;28;20036;-81
2022/08/10 03:27:31;;;;;;;7.38;4.07;;;;;;;16.11;76.56;102397.59;5266585;28;19932;-81
2022/08/10 03:30:04;;;;;;;5.03;3.60;;;;;;;16.09;76.75;102394.09;5266078;28;20505;-81
2022/08/10 03:32:36;;;;;;;6.35;3.88;;;;;;;15.97;77.54;102401.22;5265645;28;20055;-81
2022/08/10 03:35:08;;;;;;;5.45;4.00;;;;;;;15.96;77.41;102390.72;5265371;28;20033;-81
2022/08/10 03:40:21;;;;;;;5.10;3.90;;;;;;;15.92;78.07;102392.47;6226332;22;20020;-81
2022/08/10 03:42:55;;;;;;;5.57;3.63;;;;;;;15.84;78.07;102397.84;5226792;28;20038;-74
2022/08/10 03:45:29;;;;;;;5.15;4.05;;;;;;;15.86;78.36;102395.19;5205401;28;20029;-74
2022/08/10 03:48:03;;;;;;;6.65;3.83;;;;;;;15.91;78.84;102400.41;5222485;28;20030;-76
2022/08/10 03:50:36;;;;;;;5.88;3.80;;;;;;;15.97;78.74;102405.59;5204506;28;20545;-75
2022/08/10 03:53:08;;;;;;;;;;;;;;;16.13;76.06;102409.84;5222654;28;20121;-74
2022/08/10 03:55:39;;;;;;;5.20;4.00;;;;;;;15.79;78.36;102401.38;5221199;28;20207;-75
2022/08/10 03:58:11;;;;;;;6.03;4.23;;;;;;;15.68;78.86;102404.06;5222295;28;20061;-75
2022/08/10 04:00:43;;;;;;;7.20;4.65;;;;;;;15.69;79.07;102409.31;5222594;28;20033;-75
2022/08/10 04:03:15;;;;;;;6.57;4.50;;;;;;;15.69;79.46;102411.06;5222264;28;20030;-75
2022/08/10 04:05:47;;;;;;;7.10;4.68;;;;;;;15.69;79.61;102411.06;5222063;28;20470;-75
2022/08/10 04:08:19;;;;;;;5.73;4.60;;;;;;;15.67;79.89;102408.44;5222398;28;20454;-75
2022/08/10 04:10:50;;;;;;;8.38;4.30;;;;;;;15.74;79.90;102409.28;5222181;28;20034;-75
2022/08/10 04:13:22;;;;;;;6.43;4.77;;;;;;;15.81;79.69;102407.50;5204205;28;20533;-75
2022/08/10 04:15:53;;;;;;;6.50;4.00;;;;;;;15.86;79.49;102409.22;5222080;28;20113;-75
2022/08/10 04:18:25;;;;;;;11.40;5.00;;;;;;;15.65;79.85;102407.59;5221962;28;20125;-75
2022/08/10 04:21:03;;;;;;;8.57;4.73;;;;;;;15.65;80.21;102407.59;5221526;28;20042;-75
2022/08/10 04:23:39;;;;;;;12.63;4.97;;;;;;;15.61;80.57;102411.13;5221586;28;20076;-75
2022/08/10 04:26:11;;;;;;;10.15;4.97;;;;;;;15.54;80.08;102404.19;5221947;28;20034;-76
2022/08/10 04:28:43;;;;;;;9.60;5.18;;;;;;;15.53;80.25;102405.06;5221919;28;20036;-75
2022/08/10 04:31:17;;;;;;;6.40;4.70;;;;;;;15.52;80.76;102408.59;5221674;28;20029;-74
2022/08/10 04:33:51;;;;;;;9.30;4.80;;;;;;;15.46;81.01;102419.16;5221314;28;20100;-74
2022/08/10 04:36:24;;;;;;;6.90;4.95;;;;;;;15.41;81.31;102416.53;5221645;28;20021;-75
2022/08/10 04:38:55;;;;;;;;;;;;;;;15.69;78.73;102416.34;5221700;28;20467;-74
2022/08/10 04:41:27;;;;;;;9.05;4.50;;;;;;;15.43;80.87;102411.28;5203616;28;19972;-74
2022/08/10 04:43:58;;;;;;;7.28;5.05;;;;;;;15.48;81.17;102412.97;5204215;28;20040;-74
2022/08/10 04:46:30;;;;;;;5.90;4.77;;;;;;;15.44;81.14;102420.88;5221487;28;20030;-74
2022/08/10 04:49:01;;;;;;;5.93;5.33;;;;;;;15.41;81.13;102420.94;5204613;28;20036;-74
2022/08/10 04:51:33;;;;;;;8.40;5.50;;;;;;;15.42;81.65;102413.03;5221763;28;20411;-75
2022/08/10 04:54:04;;;;;;;17.63;5.43;;;;;;;15.35;81.42;102405.22;5222835;28;20026;-74
2022/08/10 04:56:37;;;;;;;6.00;4.60;;;;;;;15.30;81.95;102402.59;5236007;28;20068;-76
2022/08/10 04:59:10;;;;;;;9.43;5.20;;;;;;;15.35;82.38;102406.06;5237528;28;20056;-74
2022/08/10 05:01:41;;;;;;;6.32;4.72;;;;;;;15.52;83.01;102400.72;5237472;28;20117;-74
2022/08/10 05:04:13;;;;;;;5.90;4.70;;;;;;;15.60;82.82;102401.53;5227341;28;20113;-75
2022/08/10 05:06:44;;;;;;;6.03;4.70;;;;;;;15.43;82.29;102404.25;5226331;28;20056;-75
2022/08/10 05:09:16;;;;;;;5.70;4.77;;;;;;;15.50;82.34;102403.34;5223277;28;20030;-74
2022/08/10 05:11:48;;;;;;;6.40;5.53;;;;;;;15.50;82.44;102403.34;5222431;28;20037;-74
2022/08/10 05:14:19;;;;;;;7.35;5.70;;;;;;;15.45;81.91;102412.13;5221739;28;20026;-74
2022/08/10 05:16:50;;;;;;;7.77;5.50;;;;;;;15.45;82.40;102407.75;5203570;28;20032;-74
2022/08/10 05:19:22;;;;;;;9.70;6.30;;;;;;;15.55;82.81;102405.91;5221477;28;20100;-74
2022/08/10 05:21:53;;;;;;;7.90;5.97;;;;;;;15.72;83.25;102403.16;5221572;28;20066;-74
2022/08/10 05:24:25;;;;;;;8.00;5.53;;;;;;;15.64;82.64;102405.00;5203364;28;20045;-74
2022/08/10 05:26:56;;;;;;;8.97;6.27;;;;;;;15.71;83.01;102413.69;5221594;28;20352;-75
2022/08/10 05:29:27;;;;;;;8.63;6.00;;;;;;;15.69;82.72;102406.69;5221460;28;20422;-74
2022/08/10 05:31:59;;;;;;;8.73;6.53;;;;;;;15.72;83.26;102413.69;5221284;28;20495;-74
2022/08/10 05:34:30;;;;;;;8.27;5.80;;;;;;;15.78;83.46;102416.28;5221212;28;20084;-74
2022/08/10 05:37:02;;;;;;;7.63;6.00;;;;;;;15.75;82.85;102416.28;5220335;28;20033;-75
2022/08/10 05:39:35;;;;;;;10.80;6.70;;;;;;;15.74;82.71;102418.94;5220684;28;20034;-75
2022/08/10 05:42:06;;;;;;;;;;;;;;;15.97;81.01;102422.28;5222134;28;20373;-74
2022/08/10 05:44:38;;;;;;;7.70;6.32;;;;;;;15.88;83.05;102417.09;5220845;28;19924;-74
2022/08/10 05:47:10;;;;;;;7.22;6.50;;;;;;;16.07;83.67;102420.44;5220594;28;20084;-73
2022/08/10 05:49:41;;;;;;;6.83;6.13;;;;;;;16.17;83.25;102413.31;5220852;28;20038;-73
2022/08/10 05:52:16;;;;;;;9.60;6.83;;;;;;;16.12;82.57;102417.75;5220894;28;20119;-73
2022/08/10 05:54:48;;;;;;;8.43;6.28;;;;;;;16.21;82.89;102415.91;5220529;28;20037;-75
2022/08/10 05:57:22;;;;;;;11.68;6.43;;;;;;;16.19;82.24;102424.69;5220873;28;20076;-75
2022/08/10 05:59:59;;;;;;;11.02;7.38;;;;;;;16.32;82.56;102430.69;5220244;28;20033;-75
2022/08/10 06:02:35;;;;;;;9.75;6.72;;;;;;;16.39;83.16;102433.25;5219821;28;20030;-72
2022/08/10 06:05:10;;;;;;;9.10;6.05;;;;;;;16.44;81.94;102427.94;5220174;28;20045;-74
2022/08/10 06:07:53;;;;;;;10.45;6.47;;;;;;;16.49;81.62;102426.13;5220020;28;20438;-74
2022/08/10 06:10:26;;;;;;;7.45;6.60;;;;;;;16.49;81.75;102427.88;5220563;28;20029;-73
2022/08/10 06:15:53;;;;;;;9.50;5.97;;;;;;;16.65;81.02;102434.72;5221017;28;20025;-74
2022/08/10 06:18:24;;;;;;;7.65;6.85;;;;;;;16.72;80.75;102436.38;5202520;28;20032;-74
2022/08/10 06:20:56;;;;;;;8.87;6.93;;;;;;;16.87;82.00;102434.47;5220469;28;20096;-74
2022/08/10 06:23:30;;;;;;;8.65;6.40;;;;;;;16.88;80.46;102434.44;5220445;28;20140;-74
2022/08/10 06:26:02;;;;;;;10.63;7.43;;;;;;;16.98;80.44;102427.28;5220148;28;20037;-74
2022/08/10 06:28:38;;;;;;;7.50;6.60;;;;;;;17.05;80.51;102422.81;5220058;28;20022;-74
2022/08/10 06:31:11;;;;;;;9.23;6.85;;;;;;;17.13;80.30;102435.00;5220017;28;20030;-74
2022/08/10 06:33:44;;;;;;;8.02;7.22;;;;;;;17.21;81.92;102429.63;5219508;28;20034;-74
2022/08/10 06:36:17;;;;;;;13.35;7.28;;;;;;;17.38;80.71;102437.28;5202184;28;20034;-74
2022/08/10 06:38:50;;;;;;;10.10;7.20;;;;;;;17.48;80.10;102425.72;5219770;28;20034;-74
2022/08/10 06:41:27;;;;;;;10.18;7.18;;;;;;;17.54;78.22;102431.78;5219656;28;20383;-74
2022/08/10 06:44:04;;;;;;;7.57;6.53;;;;;;;17.64;77.76;102420.19;5220229;28;20034;-74
2022/08/10 06:46:41;;;;;;;9.05;6.65;;;;;;;17.84;79.34;102417.22;5219900;28;20065;-74
2022/08/10 06:49:15;;;;;;;9.13;6.55;;;;;;;17.87;78.28;102422.47;5220097;28;20029;-74
2022/08/10 06:51:51;;;;;;;8.10;6.13;;;;;;;18.00;76.24;102426.66;5223280;28;20038;-74
2022/08/10 06:54:26;;;;;;;8.93;6.22;;;;;;;18.03;78.06;102423.97;5224338;28;20076;-74
2022/08/10 06:57:00;;;;;;;9.27;6.43;;;;;;;18.02;75.56;102424.84;5226644;28;20458;-74
2022/08/10 06:59:43;;;;;;;7.63;6.75;;;;;;;18.14;75.13;102420.25;5223805;28;20041;-74
2022/08/10 07:02:20;;;;;;;;;;;;;;;18.37;75.49;102425.06;5224379;28;20030;-73
2022/08/10 07:04:58;;;;;;;7.13;5.97;;;;;;;18.43;75.08;102426.75;5224087;28;20253;-73
2022/08/10 07:07:33;;;;;;;7.82;5.38;;;;;;;18.51;74.74;102433.59;5223906;28;20091;-74
2022/08/10 07:10:08;;;;;;;7.43;6.00;;;;;;;18.69;75.98;102442.94;5223473;28;20108;-74
2022/08/10 07:12:40;;;;;;;7.53;5.70;;;;;;;18.85;73.58;102440.00;5223761;28;20411;-74
2022/08/10 07:15:12;;;;;;;7.22;6.13;;;;;;;18.85;74.39;102435.59;5223225;28;20029;-73
2022/08/10 07:17:45;;;;;;;7.40;6.00;;;;;;;19.00;73.75;102438.78;5205765;28;20364;-73
2022/08/10 07:20:18;;;;;;;9.93;5.50;;;;;;;19.14;73.61;102434.06;5223400;28;20072;-73
2022/08/10 07:22:52;;;;;;;8.80;5.28;;;;;;;19.20;71.17;102433.94;5223279;28;20371;-74
2022/08/10 07:25:26;;;;;;;8.05;5.60;;;;;;;19.22;71.10;102440.06;5223749;28;20038;-74
2022/08/10 07:27:59;;;;;;;10.20;6.13;;;;;;;19.22;70.85;102437.41;5223221;28;20054;-74
2022/08/10 07:30:35;;;;;;;9.63;5.65;;;;;;;19.30;70.08;102445.16;5205033;28;20133;-74
2022/08/10 07:33:08;;;;;;;7.78;6.35;;;;;;;19.41;70.46;102447.56;5223423;28;20392;-74
2022/08/10 07:35:42;;;;;;;9.73;5.72;;;;;;;19.49;71.11;102443.84;5222819;28;20034;-74
2022/08/10 07:38:25;;;;;;;7.60;5.38;;;;;;;19.60;69.44;102446.22;5222995;28;20026;-73
2022/08/10 07:41:01;;;;;;;13.85;5.82;;;;;;;19.77;69.22;102442.31;5223041;28;20435;-73
2022/08/10 07:43:37;;;;;;;8.05;5.40;;;;;;;19.80;69.89;102442.25;5223156;28;20601;-73
2022/08/10 07:46:13;;;;;;;9.52;5.20;;;;;;;19.99;70.55;102443.50;5222980;28;20375;-73
2022/08/10 07:48:49;;;;;;;7.93;6.05;;;;;;;20.09;68.01;102444.13;5223401;28;20030;-73
2022/08/10 07:51:22;;;;;;;7.28;5.68;;;;;;;20.13;68.21;102444.94;5223505;28;20160;-73
2022/08/10 07:53:54;;;;;;;;;;;;;;;20.39;68.40;102438.94;5205037;28;20034;-73
2022/08/10 07:56:27;;;;;;;10.60;5.30;;;;;;;20.45;66.42;102441.44;5222697;28;19917;-74
2022/08/10 07:59:05;;;;;;;6.38;5.05;;;;;;;20.63;65.62;102442.69;5222399;28;20033;-74
2022/08/10 08:01:47;;;;;;;10.20;5.78;;;;;;;20.68;65.24;102451.38;5222618;28;20117;-74
2022/08/10 08:04:20;;;;;;;6.72;5.32;;;;;;;20.75;65.39;102450.31;5204850;28;20351;-73
2022/08/10 08:06:53;;;;;;;17.25;6.22;;;;;;;20.95;65.66;102452.38;5222169;28;20085;-73
2022/08/10 08:09:27;;;;;;;6.07;5.47;;;;;;;20.90;64.07;102454.28;5222256;28;20041;-73
2022/08/10 08:11:59;;;;;;;7.35;5.90;;;;;;;20.93;67.72;102453.34;5221948;28;20034;-73
2022/08/10 08:14:31;;;;;;;;;;;;;;;21.19;64.50;102451.66;5204879;28;20458;-73
2022/08/10 08:17:03;;;;;;;8.90;5.03;;;;;;;21.21;64.24;102448.03;5222094;28;19918;-73
2022/08/10 08:19:35;;;;;;;5.80;4.70;;;;;;;21.36;63.45;102449.34;5222310;28;20037;-74
2022/08/10 08:22:09;;;;;;;7.00;5.35;;;;;;;21.46;62.23;102448.16;5204971;28;20052;-73
2022/08/10 08:24:41;;;;;;;10.20;5.28;;;;;;;21.41;62.23;102450.09;5221790;28;20081;-74
2022/08/10 08:27:15;;;;;;;9.63;4.93;;;;;;;21.58;62.80;102441.59;5204394;28;20037;-74
2022/08/10 08:29:49;;;;;;;7.75;4.72;;;;;;;21.60;61.69;102445.06;5221718;28;20470;-74
2022/08/10 08:32:26;;;;;;;7.93;4.32;;;;;;;21.77;63.08;102441.88;5221711;28;20034;-74
2022/08/10 08:35:07;;;;;;;8.68;5.22;;;;;;;21.85;63.64;102445.13;5221556;28;20029;-73
2022/08/10 08:37:40;;;;;;;8.80;5.32;;;;;;;21.99;60.18;102436.69;5221648;28;20075;-75
2022/08/10 08:40:22;;;;;;;8.70;4.82;;;;;;;22.16;60.06;102437.88;5221337;28;20124;-75
2022/08/10 08:43:43;;;;;;;6.63;5.13;;;;;;;22.26;60.58;102439.28;5200472;28;20125;-75
2022/08/10 08:46:32;;;;;;;7.70;5.28;;;;;;;22.34;60.18;102442.56;5201446;28;20488;-75
2022/08/10 08:49:06;;;;;;;8.65;4.55;;;;;;;22.34;59.17;102444.34;5201213;28;20037;-74
2022/08/10 08:52:01;;;;;;;7.32;5.50;;;;;;;22.65;58.77;102435.25;5200171;28;20129;-75
2022/08/10 08:54:51;;;;;;;10.10;5.15;;;;;;;22.70;58.23;102442.16;5200978;28;20355;-74
2022/08/10 08:57:48;;;;;;;10.27;5.53;;;;;;;22.84;57.74;102438.94;5201059;28;20031;-75
2022/08/10 09:00:42;;;;;;;7.68;4.93;;;;;;;22.90;57.79;102438.72;5202015;28;20375;-74
2022/08/10 09:03:34;;;;;;;8.93;5.95;;;;;;;22.91;57.20;102440.47;5201444;28;20081;-74
2022/08/10 09:06:33;;;;;;;8.48;5.80;;;;;;;23.06;58.75;102440.78;5201788;28;20041;-75
2022/08/10 09:09:20;;;;;;;6.22;4.95;;;;;;;23.22;57.89;102431.31;5200707;28;20026;-75
2022/08/10 09:12:10;;;;;;;7.90;5.35;;;;;;;23.29;56.56;102432.78;5200736;28;20067;-73
2022/08/10 09:15:07;;;;;;;10.25;5.22;;;;;;;23.40;58.22;102426.16;5198974;28;20031;-76
2022/08/10 09:17:50;;;;;;;7.18;4.78;;;;;;;23.55;58.20;102430.84;5200086;28;20053;-75
2022/08/10 09:20:40;;;;;;;8.48;5.28;;;;;;;23.66;55.46;102420.59;5200817;28;20113;-75
2022/08/10 09:23:43;;;;;;;7.32;5.05;;;;;;;23.78;54.06;102429.00;5200735;28;20031;-75
2022/08/10 09:26:27;;;;;;;8.35;5.30;;;;;;;23.69;56.38;102416.97;5199488;28;20062;-74
2022/08/10 09:29:01;;;;;;;7.53;4.28;;;;;;;23.93;52.56;102416.88;5199684;28;20037;-76
2022/08/10 09:31:43;;;;;;;7.78;4.22;;;;;;;24.01;54.72;102420.09;5200068;28;20022;-74
2022/08/10 09:34:36;;;;;;;8.70;4.82;;;;;;;23.99;52.67;102412.16;5201012;28;20026;-74
2022/08/10 09:37:36;;;;;;;10.02;4.07;;;;;;;24.19;54.49;102407.75;5200775;28;20036;-74
2022/08/10 09:40:35;;;;;;;7.63;4.15;;;;;;;24.19;51.53;102405.94;5205558;28;20030;-74
2022/08/10 09:43:59;;;;;;;9.68;4.00;;;;;;;24.62;52.03;102411.16;5201171;28;20045;-74
2022/08/10 09:46:55;;;;;;;10.85;5.45;;;;;;;24.98;51.83;102406.81;5191121;28;20066;-74
2022/08/10 09:49:37;;;;;;;7.30;4.80;;;;;;;25.38;51.06;102404.91;5199980;28;20041;-75
2022/08/10 09:52:20;;;;;;;7.05;3.65;;;;;;;25.92;48.29;102403.03;5200545;28;20030;-75
2022/08/10 09:55:22;;;;;;;8.48;4.18;;;;;;;26.32;49.07;102403.63;5200419;28;20030;-74
2022/08/10 09:58:24;;;;;;;10.10;4.38;;;;;;;26.69;48.02;102396.25;5200557;28;20110;-74
2022/08/10 10:01:12;;;;;;;8.77;4.50;;;;;;;27.10;44.20;102393.06;5200210;28;20022;-75
2022/08/10 10:03:49;;;;;;;9.27;4.32;;;;;;;27.02;48.68;102389.13;5199471;28;20808;-75
2022/08/10 10:06:38;;;;;;;8.45;4.50;;;;;;;27.28;43.52;102385.78;5199922;28;20022;-76
2022/08/10 10:09:15;;;;;;;10.90;4.10;;;;;;;27.15;44.69;102390.13;5200098;28;20364;-76
2022/08/10 10:12:09;;;;;;;8.65;3.80;;;;;;;27.36;46.38;102384.50;5200991;28;20038;-74
2022/08/10 10:15:20;;;;;;;8.48;3.55;;;;;;;27.65;46.42;102374.75;5200448;28;20180;-73
2022/08/10 10:18:16;;;;;;;7.27;3.40;;;;;;;28.01;43.55;102370.78;5200484;28;20030;-74
2022/08/10 10:20:59;;;;;;;4.50;3.40;;;;;;;28.02;39.20;102367.16;5201026;28;20387;-74
2022/08/10 10:23:39;;;;;;;9.23;3.40;;;;;;;28.38;40.82;102372.06;5200249;28;20045;-73
2022/08/10 10:26:29;;;;;;;7.10;2.88;;;;;;;28.73;43.54;102368.06;5204152;28;20057;-74
2022/08/10 10:29:03;;;;;;;4.90;2.80;;;;;;;29.16;37.56;102359.88;5215325;28;20117;-74
2022/08/10 10:31:45;;;;;;;9.88;3.67;;;;;;;29.76;38.47;102358.50;5223305;28;20045;-73
2022/08/10 10:34:21;;;;;;;7.00;3.13;;;;;;;30.36;36.72;102358.78;5220876;28;20034;-75
2022/08/10 10:36:55;;;;;;;6.95;2.88;;;;;;;31.04;34.26;102352.03;5212495;28;20026;-75
2022/08/10 10:39:30;;;;;;;6.57;2.70;;;;;;;31.40;34.08;102352.03;5208660;28;20129;-75
2022/08/10 10:42:16;;;;;;;5.78;3.00;;;;;;;31.77;32.39;102352.75;5219368;28;20050;-75
2022/08/10 10:45:14;;;;;;;5.05;3.30;;;;;;;32.44;33.14;102347.50;5224543;28;20129;-75
2022/08/10 10:48:06;;;;;;;4.93;2.80;;;;;;;33.28;32.20;102347.75;5224992;28;20030;-75
2022/08/10 10:51:14;;;;;;;5.20;2.75;;;;;;;33.76;31.82;102336.41;5224435;28;20084;-75
2022/08/10 10:54:09;;;;;;;5.57;3.20;;;;;;;34.48;30.34;102323.69;5224135;28;20382;-74
2022/08/10 10:57:08;;;;;;;6.47;2.63;;;;;;;34.56;28.20;102343.81;5207062;28;20064;-74
2022/08/10 11:00:02;;;;;;;5.60;3.20;;;;;;;35.30;28.33;102337.88;5206564;28;20466;-74
2022/08/10 11:03:00;;;;;;;6.40;3.00;;;;;;;35.89;29.11;102327.75;5224930;28;20033;-75
2022/08/10 11:05:50;;;;;;;4.28;2.75;;;;;;;35.84;27.21;102324.63;5224143;28;20032;-74
2022/08/10 11:08:25;;;;;;;4.85;2.75;;;;;;;35.45;30.70;102322.00;5223744;28;20066;-74
2022/08/10 11:11:12;;;;;;;7.88;3.00;;;;;;;35.80;27.36;102320.50;5223575;28;20335;-75
2022/08/10 11:13:58;;;;;;;6.13;4.25;;;;;;;35.62;25.36;102312.25;5223689;28;20129;-75
2022/08/10 11:16:46;;;;;;;6.65;3.60;;;;;;;35.46;25.88;102309.31;5223797;28;20030;-75
2022/08/10 11:19:27;;;;;;;4.80;3.00;;;;;;;35.62;28.28;102304.13;5224330;28;20148;-75
2022/08/10 11:22:39;;;;;;;5.13;3.10;;;;;;;36.24;27.68;102309.84;5223820;28;20037;-74
2022/08/10 11:25:28;;;;;;;5.70;2.90;;;;;;;36.81;25.47;102303.34;5207936;28;20052;-75
2022/08/10 11:28:11;;;;;;;4.68;2.72;;;;;;;36.85;25.29;102302.88;5223507;28;20425;-75
2022/08/10 11:31:09;;;;;;;6.75;2.88;;;;;;;37.67;22.81;102299.88;5223064;28;20037;-75
2022/08/10 11:33:53;;;;;;;7.05;3.13;;;;;;;37.37;26.05;102296.66;5223968;28;20034;-75
2022/08/10 11:36:35;;;;;;;7.75;3.03;;;;;;;37.27;24.90;102303.22;5222961;28;20328;-76
2022/08/10 11:39:57;;;;;;;5.07;2.50;;;;;;;37.47;23.65;102303.84;5223180;28;20040;-76
2022/08/10 11:42:48;;;;;;;6.63;3.40;;;;;;;37.71;25.80;102297.72;5200635;28;20054;-75
2022/08/10 11:45:33;;;;;;;7.60;3.35;;;;;;;37.83;23.00;102296.41;5223883;28;20573;-75
2022/08/10 11:48:15;;;;;;;5.93;2.80;;;;;;;37.78;22.42;102289.75;5223449;28;20034;-75
2022/08/10 11:50:51;;;;;;;5.25;2.65;;;;;;;38.04;24.05;102289.69;5222825;28;20556;-75
2022/08/10 11:53:30;;;;;;;7.43;3.00;;;;;;;38.73;22.60;102292.25;5222806;28;20041;-73
2022/08/10 11:56:02;;;;;;;6.93;2.97;;;;;;;39.20;20.80;102291.53;5223017;28;20530;-73
2022/08/10 12:01:31;;;;;;;8.20;3.50;;;;;;;38.44;19.57;102285.38;5223207;28;20129;-76
2022/08/10 12:04:06;;;;;;;6.65;3.53;;;;;;;38.40;21.96;102289.44;5222968;28;20034;-75
2022/08/10 12:06:40;;;;;;;6.28;3.30;;;;;;;38.93;20.71;102276.38;5222752;28;20451;-75
2022/08/10 12:09:13;;;;;;;6.30;3.35;;;;;;;39.29;20.37;102279.59;5222846;28;20455;-74
2022/08/10 12:11:47;;;;;;;10.07;3.67;;;;;;;39.77;19.02;102281.50;5205710;28;20046;-74
2022/08/10 12:14:52;;;;;;;6.63;3.35;;;;;;;40.61;20.41;102284.47;5223687;28;20041;-74
2022/08/10 12:17:42;;;;;;;5.70;3.33;;;;;;;40.24;18.70;102272.41;5227275;28;20085;-74
2022/08/10 12:20:26;;;;;;;6.65;3.00;;;;;;;40.81;20.14;102271.94;5223939;28;20056;-75
2022/08/10 12:23:09;;;;;;;5.35;3.25;;;;;;;40.68;20.69;102269.00;5222841;28;20331;-75
2022/08/10 12:25:56;;;;;;;4.72;3.22;;;;;;;40.62;18.68;102259.69;5222970;28;20037;-76
2022/08/10 12:28:52;;;;;;;7.20;3.92;;;;;;;41.54;19.73;102257.72;5222939;28;20033;-74
2022/08/10 12:31:29;;;;;;;8.00;3.60;;;;;;;40.86;19.58;102262.38;5222497;28;20025;-75
2022/08/10 12:34:14;;;;;;;5.95;2.97;;;;;;;40.77;18.18;102261.59;5222392;28;20030;-74